createdAt,value
2018-10-09T00:01:51.438Z,99592.30
2018-10-09T00:04:19.739Z,99588.06
2018-10-09T00:06:48.102Z,99589.09
2018-10-09T00:09:16.444Z,99585.22
2018-10-09T00:11:45.274Z,99586.94
2018-10-09T00:14:13.593Z,99577.85
2018-10-09T00:16:41.893Z,99583.63
2018-10-09T00:19:10.258Z,99584.19
2018-10-09T00:21:38.864Z,99581.09
2018-10-09T00:24:07.800Z,99582.48
2018-10-09T00:26:36.294Z,99582.57
2018-10-09T00:29:04.925Z,99579.92
2018-10-09T00:31:33.224Z,99577.88
2018-10-09T00:34:02.582Z,99574.27
2018-10-09T00:36:31.000Z,99566.54
2018-10-09T00:38:59.334Z,99568.69
2018-10-09T00:41:27.687Z,99558.70
2018-10-09T00:43:56.010Z,99549.05
2018-10-09T00:46:24.309Z,99553.02
2018-10-09T00:48:53.746Z,99542.91
2018-10-09T00:51:22.065Z,99539.44
2018-10-09T00:53:50.386Z,99525.00
2018-10-09T00:56:18.805Z,99527.14
2018-10-09T00:58:47.503Z,99522.91
2018-10-09T01:01:15.827Z,99529.62
2018-10-09T01:03:44.250Z,99532.26
2018-10-09T01:06:12.576Z,99533.19
2018-10-09T01:08:40.954Z,99534.51
2018-10-09T01:11:09.275Z,99538.11
2018-10-09T01:13:37.625Z,99535.16
2018-10-09T01:16:06.056Z,99536.13
2018-10-09T01:18:34.477Z,99533.18
2018-10-09T01:21:02.886Z,99532.05
2018-10-09T01:23:31.254Z,99531.03
2018-10-09T01:25:59.618Z,99524.03
2018-10-09T01:28:28.010Z,99530.08
2018-10-09T01:30:56.354Z,99525.34
2018-10-09T01:33:24.634Z,99523.66
2018-10-09T01:35:52.924Z,99532.91
2018-10-09T01:38:21.211Z,99525.94
2018-10-09T01:40:50.079Z,99526.30
2018-10-09T01:43:18.366Z,99526.86
2018-10-09T01:45:46.659Z,99518.56
2018-10-09T01:48:14.950Z,99519.39
2018-10-09T01:50:43.253Z,99519.49
2018-10-09T01:53:11.570Z,99525.38
2018-10-09T01:55:39.858Z,99529.80
2018-10-09T01:58:08.154Z,99525.07
2018-10-09T02:00:36.562Z,99532.14
2018-10-09T02:03:04.883Z,99533.56
2018-10-09T02:05:34.260Z,99537.06
2018-10-09T02:08:02.542Z,99540.72
2018-10-09T02:10:30.943Z,99538.58
2018-10-09T02:12:59.246Z,99537.35
2018-10-09T02:15:27.570Z,99538.27
2018-10-09T02:17:55.925Z,99532.52
2018-10-09T02:20:24.243Z,99535.53
2018-10-09T02:22:52.534Z,99536.48
2018-10-09T02:25:21.613Z,99539.99
2018-10-09T02:27:50.000Z,99545.44
2018-10-09T02:30:18.298Z,99548.57
2018-10-09T02:32:46.602Z,99552.44
2018-10-09T02:35:16.071Z,99547.81
2018-10-09T02:37:44.387Z,99543.84
2018-10-09T02:40:12.689Z,99543.45
2018-10-09T02:42:40.990Z,99542.63
2018-10-09T02:45:09.373Z,99540.62
2018-10-09T02:47:37.907Z,99541.76
2018-10-09T02:50:06.786Z,99538.56
2018-10-09T02:52:35.122Z,99538.66
2018-10-09T02:55:03.441Z,99542.22
2018-10-09T02:57:31.719Z,99535.71
2018-10-09T03:00:00.067Z,99530.06
2018-10-09T03:02:28.365Z,99525.24
2018-10-09T03:04:56.675Z,99529.85
2018-10-09T03:07:25.090Z,99524.97
2018-10-09T03:09:53.786Z,99518.92
2018-10-09T03:12:23.133Z,99519.28
2018-10-09T03:14:51.441Z,99517.30
2018-10-09T03:17:19.849Z,99513.23
2018-10-09T03:19:48.175Z,99509.28
2018-10-09T03:22:16.703Z,99507.95
2018-10-09T03:24:45.303Z,99503.83
2018-10-09T03:27:13.896Z,99502.30
2018-10-09T03:29:42.414Z,99499.11
2018-10-09T03:32:10.740Z,99489.56
2018-10-09T03:34:39.030Z,99490.87
2018-10-09T03:37:07.446Z,99490.09
2018-10-09T03:39:35.745Z,99491.41
2018-10-09T03:42:04.078Z,99484.53
2018-10-09T03:44:32.386Z,99482.75
2018-10-09T03:47:00.742Z,99480.27
2018-10-09T03:49:29.050Z,99486.05
2018-10-09T03:51:57.346Z,99476.50
2018-10-09T03:54:25.746Z,99477.36
2018-10-09T04:01:58.029Z,99468.56
2018-10-09T04:04:26.306Z,99468.09
2018-10-09T04:06:55.551Z,99461.23
2018-10-09T04:09:24.996Z,99463.47
2018-10-09T04:11:53.257Z,99464.89
2018-10-09T04:14:21.578Z,99460.92
2018-10-09T04:16:49.934Z,99464.23
2018-10-09T04:19:18.286Z,99458.75
2018-10-09T04:21:46.665Z,99462.61
2018-10-09T04:24:14.983Z,99464.70
2018-10-09T04:26:44.431Z,99462.61
2018-10-09T04:29:12.733Z,99459.05
2018-10-09T04:31:41.126Z,99463.38
2018-10-09T04:34:09.574Z,99457.82
2018-10-09T04:36:37.906Z,99454.69
2018-10-09T04:39:08.122Z,99455.73
2018-10-09T04:41:36.453Z,99455.09
2018-10-09T04:44:04.784Z,99458.65
2018-10-09T04:46:33.134Z,99450.73
2018-10-09T04:49:01.451Z,99447.72
2018-10-09T04:51:29.808Z,99450.27
2018-10-09T04:53:58.655Z,99449.50
2018-10-09T04:56:26.958Z,99449.59
2018-10-09T04:58:55.255Z,99454.78
2018-10-09T05:01:23.590Z,99454.42
2018-10-09T05:03:51.925Z,99460.16
2018-10-09T05:06:20.241Z,99467.63
2018-10-09T05:08:48.658Z,99465.84
2018-10-09T05:11:16.998Z,99457.80
2018-10-09T05:13:45.340Z,99458.48
2018-10-09T05:16:13.678Z,99465.94
2018-10-09T05:18:42.066Z,99459.40
2018-10-09T05:21:10.415Z,99467.32
2018-10-09T05:23:38.811Z,99477.05
2018-10-09T05:26:07.159Z,99469.13
2018-10-09T05:28:35.491Z,99474.41
2018-10-09T05:31:03.903Z,99480.16
2018-10-09T05:33:32.182Z,99475.43
2018-10-09T05:36:00.506Z,99468.47
2018-10-09T05:38:28.817Z,99478.53
2018-10-09T05:40:57.102Z,99477.15
2018-10-09T05:43:25.443Z,99484.30
2018-10-09T05:45:53.767Z,99484.41
2018-10-09T05:48:22.142Z,99494.01
2018-10-09T05:50:50.458Z,99494.77
2018-10-09T05:53:18.795Z,99495.33
2018-10-09T05:55:47.142Z,99506.94
2018-10-09T05:58:15.584Z,99516.09
2018-10-09T06:00:43.871Z,99515.32
2018-10-09T06:03:12.194Z,99523.24
2018-10-09T06:05:40.498Z,99517.96
2018-10-09T06:08:08.835Z,99524.01
2018-10-09T06:10:37.178Z,99526.34
2018-10-09T06:13:05.626Z,99527.11
2018-10-09T06:15:34.014Z,99537.86
2018-10-09T06:18:02.294Z,99539.27
2018-10-09T06:20:31.921Z,99543.14
2018-10-09T06:23:00.286Z,99540.86
2018-10-09T06:25:28.611Z,99548.78
2018-10-09T06:27:56.979Z,99550.10
2018-10-09T06:30:25.285Z,99544.45
2018-10-09T06:32:53.611Z,99547.46
2018-10-09T06:35:22.027Z,99547.86
2018-10-09T06:37:50.432Z,99547.37
2018-10-09T06:40:18.752Z,99545.95
2018-10-09T06:42:47.125Z,99547.58
2018-10-09T06:45:15.383Z,99546.54
2018-10-09T06:47:43.719Z,99549.85
2018-10-09T06:50:12.042Z,99557.03
2018-10-09T06:52:40.538Z,99558.66
2018-10-09T06:55:09.039Z,99561.30
2018-10-09T06:57:37.370Z,99556.38
2018-10-09T07:00:05.719Z,99563.39
2018-10-09T07:02:34.011Z,99562.74
2018-10-09T07:05:02.338Z,99564.73
2018-10-09T07:07:30.688Z,99567.58
2018-10-09T07:09:59.017Z,99561.66
2018-10-09T07:12:27.954Z,99568.73
2018-10-09T07:14:56.311Z,99561.02
2018-10-09T07:17:24.679Z,99570.94
2018-10-09T07:19:53.090Z,99571.61
2018-10-09T07:22:21.448Z,99574.92
2018-10-09T07:24:49.770Z,99577.73
2018-10-09T07:27:18.102Z,99584.55
2018-10-09T07:29:46.488Z,99592.66
2018-10-09T07:32:14.823Z,99587.11
2018-10-09T07:34:43.219Z,99594.38
2018-10-09T07:37:11.523Z,99594.66
2018-10-09T07:39:39.825Z,99593.63
2018-10-09T07:42:09.187Z,99598.27
2018-10-09T07:44:38.620Z,99599.76
2018-10-09T07:47:06.948Z,99604.02
2018-10-09T07:49:35.279Z,99606.38
2018-10-09T07:52:03.606Z,99612.43
2018-10-09T07:54:31.966Z,99610.55
2018-10-09T07:57:00.308Z,99612.53
2018-10-09T07:59:28.695Z,99610.16
2018-10-09T08:01:57.182Z,99614.02
2018-10-09T08:04:25.506Z,99619.09
2018-10-09T08:06:54.903Z,99611.81
2018-10-09T08:09:23.254Z,99611.88
2018-10-09T08:11:51.762Z,99615.59
2018-10-09T08:14:20.184Z,99627.20
2018-10-09T08:16:48.543Z,99627.30
2018-10-09T08:19:17.018Z,99623.39
2018-10-09T08:21:45.360Z,99615.75
2018-10-09T08:24:13.720Z,99621.14
2018-10-09T08:26:42.023Z,99621.80
2018-10-09T08:29:10.359Z,99622.05
2018-10-09T08:31:38.679Z,99625.00
2018-10-09T08:34:07.754Z,99626.58
2018-10-09T08:36:36.139Z,99633.59
2018-10-09T08:39:05.504Z,99636.51
2018-10-09T08:41:33.806Z,99638.20
2018-10-09T08:44:02.191Z,99637.27
2018-10-09T08:46:30.534Z,99639.45
2018-10-09T08:48:58.876Z,99646.80
2018-10-09T08:51:27.166Z,99644.55
2018-10-09T08:53:55.523Z,99644.91
2018-10-09T08:56:23.857Z,99646.12
2018-10-09T08:58:52.191Z,99642.55
2018-10-09T09:01:20.559Z,99641.13
2018-10-09T09:03:48.982Z,99637.41
2018-10-09T09:06:17.314Z,99638.17
2018-10-09T09:08:45.654Z,99642.34
2018-10-09T09:11:14.038Z,99636.38
2018-10-09T09:13:42.463Z,99645.83
2018-10-09T09:16:10.782Z,99645.06
2018-10-09T09:18:39.359Z,99653.95
2018-10-09T09:21:07.808Z,99651.39
2018-10-09T09:23:36.191Z,99656.73
2018-10-09T09:26:04.535Z,99653.31
2018-10-09T09:28:32.873Z,99657.27
2018-10-09T09:31:01.262Z,99654.23
2018-10-09T09:33:29.566Z,99654.77
2018-10-09T09:35:57.911Z,99655.42
2018-10-09T09:38:26.368Z,99658.61
2018-10-09T09:40:54.858Z,99653.96
2018-10-09T09:43:23.340Z,99657.73
2018-10-09T09:45:52.041Z,99652.96
2018-10-09T09:48:20.551Z,99658.27
2018-10-09T09:50:48.902Z,99653.00
2018-10-09T09:53:17.210Z,99645.98
2018-10-09T09:55:45.540Z,99638.91
2018-10-09T09:58:14.058Z,99634.89
2018-10-09T10:00:47.674Z,99638.44
2018-10-09T10:03:15.980Z,99638.89
2018-10-09T10:05:44.321Z,99642.31
2018-10-09T10:08:12.727Z,99645.50
2018-10-09T10:10:41.829Z,99638.06
2018-10-09T10:13:10.190Z,99642.11
2018-10-09T10:15:38.525Z,99640.33
2018-10-09T10:18:06.895Z,99635.97
2018-10-09T10:20:35.280Z,99636.10
2018-10-09T10:23:03.578Z,99636.16
2018-10-09T10:25:31.931Z,99623.78
2018-10-09T10:28:00.214Z,99634.31
2018-10-09T10:30:28.692Z,99639.95
2018-10-09T10:32:57.164Z,99638.55
2018-10-09T10:35:25.498Z,99639.78
2018-10-09T10:37:54.185Z,99638.88
2018-10-09T10:40:22.498Z,99636.63
2018-10-09T10:42:50.779Z,99633.97
2018-10-09T10:45:19.091Z,99628.37
2018-10-09T10:47:47.370Z,99630.80
2018-10-09T10:50:16.764Z,99629.82
2018-10-09T10:52:45.250Z,99629.00
2018-10-09T10:55:13.644Z,99634.78
2018-10-09T10:57:41.962Z,99629.11
2018-10-09T11:00:10.268Z,99626.34
2018-10-09T11:02:38.642Z,99625.48
2018-10-09T11:05:07.098Z,99621.38
2018-10-09T11:07:35.420Z,99621.14
2018-10-09T11:10:03.777Z,99619.34
2018-10-09T11:12:32.093Z,99615.36
2018-10-09T11:15:00.439Z,99615.98
2018-10-09T11:17:28.794Z,99609.09
2018-10-09T11:19:57.199Z,99609.37
2018-10-09T11:22:25.495Z,99609.88
2018-10-09T11:24:53.991Z,99608.19
2018-10-09T11:27:22.303Z,99603.25
2018-10-09T11:29:52.494Z,99606.29
2018-10-09T11:32:20.810Z,99601.86
2018-10-09T11:34:49.235Z,99600.16
2018-10-09T11:37:17.554Z,99599.19
2018-10-09T11:39:45.914Z,99595.20
2018-10-09T11:42:15.275Z,99591.33
2018-10-09T11:44:43.590Z,99585.30
2018-10-09T11:47:11.915Z,99586.02
2018-10-09T11:49:40.267Z,99579.11
2018-10-09T11:52:08.600Z,99575.36
2018-10-09T11:54:37.059Z,99561.80
2018-10-09T11:57:05.448Z,99563.12
2018-10-09T11:59:33.748Z,99558.78
2018-10-09T12:02:02.082Z,99559.41
2018-10-09T12:04:30.447Z,99556.03
2018-10-09T12:06:58.767Z,99557.38
2018-10-09T12:09:27.055Z,99557.88
2018-10-09T12:11:55.415Z,99559.31
2018-10-09T12:14:23.711Z,99553.66
2018-10-09T12:16:52.063Z,99550.25
2018-10-09T12:19:20.415Z,99547.41
2018-10-09T12:21:48.811Z,99541.49
2018-10-09T12:24:17.211Z,99539.18
2018-10-09T12:26:45.587Z,99546.06
2018-10-09T12:29:13.889Z,99541.72
2018-10-09T12:31:42.205Z,99545.23
2018-10-09T12:34:10.502Z,99539.53
2018-10-09T12:36:38.873Z,99535.31
2018-10-09T12:39:10.327Z,99526.00
2018-10-09T12:41:38.675Z,99525.14
2018-10-09T12:44:07.002Z,99530.11
2018-10-09T12:46:35.604Z,99522.23
2018-10-09T12:49:04.067Z,99520.98
2018-10-09T12:51:32.338Z,99518.95
2018-10-09T12:54:00.962Z,99522.20
2018-10-09T12:56:29.305Z,99525.34
2018-10-09T12:58:57.897Z,99514.95
2018-10-09T13:01:26.189Z,99513.74
2018-10-09T13:03:54.454Z,99512.53
2018-10-09T13:06:22.744Z,99512.66
2018-10-09T13:08:51.014Z,99513.25
2018-10-09T13:11:19.325Z,99510.21
2018-10-09T13:13:48.463Z,99511.55
2018-10-09T13:16:16.802Z,99504.19
2018-10-09T13:18:45.092Z,99505.61
2018-10-09T13:21:13.541Z,99509.25
2018-10-09T13:23:41.735Z,99511.05
2018-10-09T13:26:10.035Z,99505.38
2018-10-09T13:28:38.395Z,99504.52
2018-10-09T13:31:06.795Z,99506.36
2018-10-09T13:33:35.105Z,99510.44
2018-10-09T13:36:03.395Z,99503.44
2018-10-09T13:38:31.711Z,99502.23
2018-10-09T13:41:00.137Z,99499.22
2018-10-09T13:43:28.450Z,99496.17
2018-10-09T13:45:56.749Z,99497.51
2018-10-09T13:48:25.028Z,99496.77
2018-10-09T13:50:53.369Z,99494.11
2018-10-09T13:53:21.607Z,99488.45
2018-10-09T13:55:49.915Z,99489.39
2018-10-09T13:58:18.218Z,99495.22
2018-10-09T14:00:46.530Z,99489.05
2018-10-09T14:03:14.826Z,99485.65
2018-10-09T14:05:43.075Z,99489.28
2018-10-09T14:08:11.423Z,99490.23
2018-10-09T14:10:39.712Z,99494.22
2018-10-09T14:13:08.002Z,99491.20
2018-10-09T14:15:36.347Z,99488.55
2018-10-09T14:18:04.670Z,99486.87
2018-10-09T14:20:32.951Z,99485.16
2018-10-09T14:23:01.342Z,99479.84
2018-10-09T14:25:29.580Z,99479.37
2018-10-09T14:27:57.843Z,99473.31
2018-10-09T14:30:26.133Z,99472.84
2018-10-09T14:32:54.423Z,99472.84
2018-10-09T14:35:23.018Z,99469.80
2018-10-09T14:37:51.486Z,99469.80
2018-10-09T14:40:19.755Z,99475.63
2018-10-09T14:42:48.042Z,99475.23
2018-10-09T14:45:16.331Z,99466.05
2018-10-09T14:47:44.684Z,99469.19
2018-10-09T14:50:13.058Z,99467.03
2018-10-09T14:52:41.347Z,99471.14
2018-10-09T14:55:09.718Z,99471.27
2018-10-09T14:57:38.098Z,99470.88
2018-10-09T15:00:06.953Z,99474.39
2018-10-09T15:02:35.388Z,99473.19
2018-10-09T15:05:03.702Z,99472.80
2018-10-09T15:07:31.970Z,99466.05
2018-10-09T15:10:00.239Z,99478.12
2018-10-09T15:12:28.546Z,99473.43
2018-10-09T15:14:56.972Z,99473.43
2018-10-09T15:17:25.560Z,99472.19
2018-10-09T15:19:54.050Z,99476.67
2018-10-09T15:22:22.729Z,99480.40
2018-10-09T15:24:51.594Z,99483.91
2018-10-09T15:27:20.142Z,99477.39
2018-10-09T15:29:48.833Z,99479.19
2018-10-09T15:32:17.365Z,99482.44
2018-10-09T15:34:45.937Z,99483.89
2018-10-09T15:37:14.486Z,99484.36
2018-10-09T15:39:43.002Z,99482.30
2018-10-09T15:42:11.295Z,99482.77
2018-10-09T15:44:39.579Z,99481.09
2018-10-09T15:47:07.911Z,99475.98
2018-10-09T15:49:36.263Z,99477.42
2018-10-09T15:52:04.583Z,99471.88
2018-10-09T15:54:32.843Z,99472.00
2018-10-09T15:57:01.136Z,99480.56
2018-10-09T15:59:29.450Z,99479.36
2018-10-09T16:01:57.754Z,99480.80
2018-10-09T16:04:26.074Z,99475.10
2018-10-09T16:06:54.396Z,99478.86
2018-10-09T16:09:22.679Z,99482.09
2018-10-09T16:11:50.967Z,99491.02
2018-10-09T16:14:19.310Z,99485.81
2018-10-09T16:16:47.610Z,99489.09
2018-10-09T16:19:15.999Z,99482.06
2018-10-09T16:21:45.295Z,99487.15
2018-10-09T16:24:13.587Z,99485.08
2018-10-09T16:26:42.010Z,99480.36
2018-10-09T16:29:10.423Z,99481.80
2018-10-09T16:31:38.718Z,99479.73
2018-10-09T16:34:07.061Z,99486.02
2018-10-09T16:36:35.356Z,99479.70
2018-10-09T16:39:04.536Z,99484.19
2018-10-09T16:41:32.850Z,99482.59
2018-10-09T16:44:01.148Z,99489.34
2018-10-09T16:46:29.495Z,99483.30
2018-10-09T16:48:57.798Z,99489.19
2018-10-09T16:51:26.115Z,99486.30
2018-10-09T16:53:54.434Z,99490.75
2018-10-09T16:56:22.809Z,99494.50
2018-10-09T16:58:51.079Z,99496.41
2018-10-09T17:01:19.425Z,99503.98
2018-10-09T17:03:47.746Z,99502.89
2018-10-09T17:06:16.030Z,99504.33
2018-10-09T17:08:44.415Z,99501.33
2018-10-09T17:11:12.754Z,99496.72
2018-10-09T17:13:41.035Z,99501.25
2018-10-09T17:16:09.571Z,99499.65
2018-10-09T17:18:37.866Z,99496.17
2018-10-09T17:21:06.330Z,99499.88
2018-10-09T17:23:34.670Z,99505.77
2018-10-09T17:26:02.928Z,99504.09
2018-10-09T17:28:31.317Z,99500.22
2018-10-09T17:30:59.572Z,99510.95
2018-10-09T17:33:27.914Z,99510.68
2018-10-09T17:35:56.151Z,99513.84
2018-10-09T17:38:24.583Z,99511.65
2018-10-09T17:40:52.891Z,99516.57
2018-10-09T17:43:21.326Z,99517.08
2018-10-09T17:45:49.623Z,99518.01
2018-10-09T17:48:18.974Z,99519.84
2018-10-09T17:50:47.238Z,99522.11
2018-10-09T17:53:15.534Z,99516.05
2018-10-09T17:55:43.863Z,99516.66
2018-10-09T17:58:12.181Z,99518.47
2018-10-09T18:00:40.518Z,99522.44
2018-10-09T18:03:08.886Z,99525.56
2018-10-09T18:05:37.296Z,99524.82
2018-10-09T18:08:05.909Z,99523.50
2018-10-09T18:10:34.198Z,99531.95
2018-10-09T18:13:02.645Z,99524.80
2018-10-09T18:15:30.911Z,99533.47
2018-10-09T18:17:59.298Z,99529.99
2018-10-09T18:20:27.619Z,99529.99
2018-10-09T18:22:55.955Z,99528.39
2018-10-09T18:25:24.218Z,99532.02
2018-10-09T18:27:52.577Z,99532.95
2018-10-09T18:30:20.883Z,99538.76
2018-10-09T18:32:49.453Z,99546.44
2018-10-09T18:35:17.543Z,99541.13
2018-10-09T18:37:45.851Z,99547.02
2018-10-09T18:40:14.138Z,99544.02
2018-10-09T18:42:42.474Z,99548.95
2018-10-09T18:45:11.218Z,99552.55
2018-10-09T18:47:42.328Z,99550.86
2018-10-09T18:50:11.182Z,99544.70
2018-10-09T18:52:40.312Z,99552.77
2018-10-09T18:55:10.326Z,99540.20
2018-10-09T18:57:38.646Z,99544.64
2018-10-09T19:00:07.674Z,99544.28
2018-10-09T19:02:35.994Z,99545.72
2018-10-09T19:05:04.347Z,99543.54
2018-10-09T19:07:32.646Z,99540.53
2018-10-09T19:10:00.967Z,99542.44
2018-10-09T19:12:30.267Z,99542.44
2018-10-09T19:14:58.666Z,99547.84
2018-10-09T19:17:26.951Z,99547.45
2018-10-09T19:19:55.290Z,99547.09
2018-10-09T19:22:23.608Z,99545.41
2018-10-09T19:24:51.899Z,99549.00
2018-10-09T19:27:20.466Z,99551.41
2018-10-09T19:29:48.811Z,99547.43
2018-10-09T19:32:17.134Z,99552.34
2018-10-09T19:34:45.482Z,99546.29
2018-10-09T19:37:13.759Z,99551.23
2018-10-09T19:39:42.115Z,99551.81
2018-10-09T19:42:10.399Z,99559.95
2018-10-09T19:44:38.695Z,99566.11
2018-10-09T19:47:07.083Z,99566.22
2018-10-09T19:49:35.386Z,99560.53
2018-10-09T19:52:03.678Z,99561.11
2018-10-09T19:54:31.980Z,99560.28
2018-10-09T19:57:00.243Z,99559.42
2018-10-09T19:59:28.602Z,99555.91
2018-10-09T20:01:56.856Z,99556.41
2018-10-09T20:04:25.151Z,99559.53
2018-10-09T20:06:53.574Z,99557.81
2018-10-09T20:09:21.888Z,99562.28
2018-10-09T20:11:50.198Z,99561.89
2018-10-09T20:14:18.545Z,99557.56
2018-10-09T20:16:46.847Z,99559.46
2018-10-09T20:19:15.207Z,99559.92
2018-10-09T20:21:43.563Z,99556.45
2018-10-09T20:24:11.915Z,99560.03
2018-10-09T20:26:40.179Z,99560.53
2018-10-09T20:29:08.468Z,99557.02
2018-10-09T20:31:36.741Z,99557.02
2018-10-09T20:34:05.095Z,99560.61
2018-10-09T20:36:33.399Z,99556.27
2018-10-09T20:39:01.843Z,99558.92
2018-10-09T20:41:30.224Z,99556.02
2018-10-09T20:43:58.506Z,99557.35
2018-10-09T20:46:26.822Z,99554.20
2018-10-09T20:48:55.090Z,99561.33
2018-10-09T20:51:23.497Z,99561.33
2018-10-09T20:53:51.795Z,99563.12
2018-10-09T20:56:20.125Z,99556.59
2018-10-09T20:58:48.482Z,99564.16
2018-10-09T21:01:16.814Z,99565.23
2018-10-09T21:03:45.099Z,99562.19
2018-10-09T21:06:13.576Z,99558.72
2018-10-09T21:08:43.118Z,99559.28
2018-10-09T21:11:11.416Z,99554.09
2018-10-09T21:13:39.781Z,99551.91
2018-10-09T21:16:08.143Z,99554.56
2018-10-09T21:18:36.491Z,99552.02
2018-10-09T21:21:04.847Z,99553.92
2018-10-09T21:23:33.187Z,99553.56
2018-10-09T21:26:01.608Z,99557.03
2018-10-09T21:28:29.975Z,99554.98
2018-10-09T21:30:58.295Z,99556.78
2018-10-09T21:33:26.550Z,99559.53
2018-10-09T21:35:54.885Z,99553.84
2018-10-09T21:38:23.298Z,99551.69
2018-10-09T21:40:51.582Z,99552.73
2018-10-09T21:43:19.891Z,99550.66
2018-10-09T21:45:48.206Z,99552.84
2018-10-09T21:48:16.534Z,99558.14
2018-10-09T21:50:45.846Z,99556.45
2018-10-09T21:53:14.610Z,99558.71
2018-10-09T21:55:42.911Z,99556.16
2018-10-09T21:58:11.224Z,99556.63
2018-10-09T22:00:44.825Z,99560.25
2018-10-09T22:03:13.185Z,99556.84
2018-10-09T22:05:41.460Z,99556.02
2018-10-09T22:08:09.758Z,99547.21
2018-10-09T22:10:38.107Z,99551.19
2018-10-09T22:13:06.723Z,99552.11
2018-10-09T22:15:35.031Z,99559.70
2018-10-09T22:18:03.346Z,99550.07
2018-10-09T22:20:31.627Z,99550.07
2018-10-09T22:22:59.929Z,99554.15
2018-10-09T22:25:28.218Z,99554.22
2018-10-09T22:27:56.486Z,99542.41
2018-10-09T22:30:24.778Z,99541.58
2018-10-09T22:32:53.159Z,99540.33
2018-10-09T22:35:21.470Z,99537.22
2018-10-09T22:37:49.759Z,99532.98
2018-10-09T22:40:18.075Z,99538.28
2018-10-09T22:42:46.985Z,99532.23
2018-10-09T22:45:15.323Z,99535.34
2018-10-09T22:47:43.636Z,99538.00
2018-10-09T22:50:12.135Z,99535.34
2018-10-09T22:52:40.771Z,99540.28
2018-10-09T22:55:09.324Z,99535.09
2018-10-09T22:57:38.062Z,99530.27
2018-10-09T23:00:06.750Z,99539.53
2018-10-09T23:02:35.051Z,99535.66
2018-10-09T23:05:03.403Z,99539.64
2018-10-09T23:07:31.719Z,99536.13
2018-10-09T23:10:00.018Z,99534.02
2018-10-09T23:12:28.346Z,99535.34
2018-10-09T23:14:56.598Z,99534.02
2018-10-09T23:17:24.923Z,99528.47
2018-10-09T23:19:53.226Z,99538.20
2018-10-09T23:22:21.587Z,99527.25
2018-10-09T23:24:49.902Z,99536.13
2018-10-09T23:27:18.199Z,99534.80
2018-10-09T23:29:46.457Z,99525.64
2018-10-09T23:32:14.815Z,99530.93
2018-10-09T23:34:43.100Z,99530.67
2018-10-09T23:37:11.379Z,99526.70
2018-10-09T23:39:39.680Z,99521.12
2018-10-09T23:42:07.999Z,99523.30
2018-10-09T23:44:36.311Z,99524.23
2018-10-09T23:47:04.709Z,99522.08
2018-10-09T23:49:33.011Z,99517.72
2018-10-09T23:52:01.334Z,99520.47
2018-10-09T23:54:29.606Z,99516.89
2018-10-09T23:56:57.895Z,99517.46
2018-10-09T23:59:26.155Z,99518.89
